createdAt,value
2019-01-13T17:35:52.134Z,9.33
2019-01-13T17:37:00.187Z,11.63
2019-01-13T17:38:07.719Z,8.53
2019-01-13T17:39:15.509Z,8.37
2019-01-13T17:40:25.547Z,10.77
2019-01-13T17:41:33.516Z,10.27
2019-01-13T17:42:41.800Z,13.03
2019-01-13T17:43:49.463Z,9.77
2019-01-13T17:44:57.021Z,11.23
2019-01-13T17:46:04.916Z,10.87
2019-01-13T17:47:12.866Z,10.83
2019-01-13T17:48:20.490Z,7.73
2019-01-13T17:49:28.432Z,10.83
2019-01-13T17:50:36.381Z,12.30
2019-01-13T17:51:44.020Z,11.20
2019-01-13T17:52:52.167Z,8.17
2019-01-13T17:53:59.827Z,11.83
2019-01-13T17:55:13.816Z,9.67
2019-01-13T17:56:22.591Z,10.07
2019-01-13T17:57:30.662Z,7.57
2019-01-13T17:58:38.427Z,15.00
2019-01-13T17:59:46.506Z,9.17
2019-01-13T18:00:56.745Z,7.37
2019-01-13T18:02:05.017Z,6.63
2019-01-13T18:03:17.348Z,10.60
2019-01-13T18:04:25.015Z,7.93
2019-01-13T18:05:33.902Z,9.47
2019-01-13T18:06:41.697Z,7.37
2019-01-13T18:07:49.568Z,10.50
2019-01-13T18:08:57.264Z,11.07
2019-01-13T18:10:07.134Z,10.87
2019-01-13T18:11:14.645Z,13.40
2019-01-13T18:12:22.347Z,9.73
2019-01-13T18:13:30.159Z,8.70
2019-01-13T18:14:37.978Z,9.93
2019-01-13T18:15:45.817Z,12.33
2019-01-13T18:16:53.563Z,9.97
2019-01-13T18:18:01.322Z,8.33
2019-01-13T18:19:09.425Z,12.33
2019-01-13T18:20:20.913Z,10.40
2019-01-13T18:21:28.414Z,9.97
2019-01-13T18:22:36.368Z,14.37
2019-01-13T18:23:44.161Z,8.73
2019-01-13T18:24:52.073Z,10.30
2019-01-13T18:26:00.243Z,12.03
2019-01-13T18:27:08.130Z,9.70
2019-01-13T18:28:15.852Z,8.53
2019-01-13T18:29:23.600Z,9.10
2019-01-13T18:30:31.180Z,11.97
2019-01-13T18:31:39.179Z,10.20
2019-01-13T18:32:46.670Z,8.00
2019-01-13T18:33:54.472Z,6.63
2019-01-13T18:35:02.096Z,8.10
2019-01-13T18:36:12.098Z,7.30
2019-01-13T18:37:19.910Z,7.47
2019-01-13T18:38:27.686Z,10.27
2019-01-13T18:39:35.329Z,7.73
2019-01-13T18:40:43.102Z,11.07
2019-01-13T18:41:51.139Z,8.23
2019-01-13T18:42:58.699Z,7.87
2019-01-13T18:44:10.278Z,8.37
2019-01-13T18:45:18.007Z,10.27
2019-01-13T18:46:25.679Z,7.80
2019-01-13T18:47:33.237Z,8.33
2019-01-13T18:48:41.004Z,8.03
2019-01-13T18:49:48.697Z,6.70
2019-01-13T18:50:56.439Z,8.03
2019-01-13T18:52:04.201Z,7.77
2019-01-13T18:53:14.809Z,8.00
2019-01-13T18:54:22.570Z,9.50
2019-01-13T18:55:30.760Z,7.40
2019-01-13T18:56:38.539Z,6.30
2019-01-13T18:57:46.192Z,7.30
2019-01-13T18:58:53.912Z,11.47
2019-01-13T19:00:01.307Z,5.37
2019-01-13T19:01:09.185Z,8.70
2019-01-13T19:02:17.293Z,9.43
2019-01-13T19:03:24.933Z,10.23
2019-01-13T19:04:33.082Z,7.87
2019-01-13T19:05:40.888Z,8.80
2019-01-13T19:06:48.410Z,8.60
2019-01-13T19:07:56.028Z,5.30
2019-01-13T19:09:05.345Z,6.10
2019-01-13T19:10:21.622Z,9.37
2019-01-13T19:11:27.552Z,6.87
2019-01-13T19:12:35.017Z,6.17
2019-01-13T19:14:05.745Z,7.10
2019-01-13T19:15:13.427Z,6.63
2019-01-13T19:16:22.948Z,10.03
2019-01-13T19:17:30.443Z,9.97
2019-01-13T19:18:37.882Z,8.57
2019-01-13T19:19:46.050Z,7.23
2019-01-13T19:20:53.662Z,7.23
2019-01-13T19:22:01.211Z,7.13
2019-01-13T19:23:09.123Z,8.63
2019-01-13T19:24:16.892Z,8.73
2019-01-13T19:25:24.865Z,8.80
2019-01-13T19:26:32.571Z,7.50
2019-01-13T19:27:40.395Z,5.03
2019-01-13T19:28:48.233Z,5.70
2019-01-13T19:29:56.056Z,7.40
2019-01-13T19:31:03.689Z,6.50
2019-01-13T19:32:12.153Z,4.93
2019-01-13T19:33:20.002Z,7.43
2019-01-13T19:34:27.857Z,7.47
2019-01-13T19:35:35.738Z,9.27
2019-01-13T19:36:43.626Z,5.37
2019-01-13T19:37:51.153Z,8.27
2019-01-13T19:38:59.105Z,10.27
2019-01-13T19:40:17.009Z,6.13
2019-01-13T19:41:24.800Z,6.23
2019-01-13T19:42:32.575Z,7.20
2019-01-13T19:43:40.443Z,6.37
2019-01-13T19:44:48.484Z,7.57
2019-01-13T19:45:56.930Z,3.83
2019-01-13T19:47:04.742Z,7.27
2019-01-13T19:48:12.424Z,8.53
2019-01-13T19:49:20.017Z,5.57
2019-01-13T19:50:28.021Z,7.10
2019-01-13T19:51:36.194Z,4.37
2019-01-13T19:52:43.735Z,6.30
2019-01-13T19:53:51.994Z,4.17
2019-01-13T19:54:59.706Z,6.77
2019-01-13T19:56:07.278Z,4.50
2019-01-13T19:57:15.421Z,4.73
2019-01-13T19:58:23.380Z,6.37
2019-01-13T19:59:31.494Z,6.00
2019-01-13T20:00:39.015Z,4.23
2019-01-13T20:01:46.730Z,5.37
2019-01-13T20:02:56.332Z,7.13
2019-01-13T20:04:04.294Z,5.47
2019-01-13T20:05:12.029Z,6.90
2019-01-13T20:06:19.906Z,7.37
2019-01-13T20:07:27.525Z,5.90
2019-01-13T20:08:34.948Z,8.23
2019-01-13T20:09:42.633Z,8.20
2019-01-13T20:10:50.647Z,4.73
2019-01-13T20:11:58.450Z,7.50
2019-01-13T20:13:06.140Z,4.57
2019-01-13T20:14:14.130Z,7.17
2019-01-13T20:15:23.061Z,5.60
2019-01-13T20:16:31.005Z,6.80
2019-01-13T20:17:38.612Z,5.10
2019-01-13T20:18:46.444Z,7.40
2019-01-13T20:19:53.756Z,7.23
2019-01-13T20:21:01.646Z,6.23
2019-01-13T20:22:09.433Z,7.77
2019-01-13T20:23:17.068Z,3.87
2019-01-13T20:24:24.606Z,6.87
2019-01-13T20:25:32.201Z,8.67
2019-01-13T20:26:39.937Z,8.33
2019-01-13T20:27:47.838Z,6.73
2019-01-13T20:28:56.091Z,5.80
2019-01-13T20:30:04.074Z,9.13
2019-01-13T20:31:12.014Z,5.57
2019-01-13T20:32:19.717Z,5.93
2019-01-13T20:33:27.485Z,6.40
2019-01-13T20:34:35.477Z,6.07
2019-01-13T20:35:43.256Z,6.87
2019-01-13T20:36:50.988Z,7.77
2019-01-13T20:37:59.235Z,5.27
2019-01-13T20:39:09.637Z,5.90
2019-01-13T20:40:18.176Z,5.33
2019-01-13T20:41:25.877Z,6.60
2019-01-13T20:42:33.766Z,7.10
2019-01-13T20:43:41.786Z,5.63
2019-01-13T20:44:49.527Z,6.67
2019-01-13T20:45:57.594Z,8.03
2019-01-13T20:47:05.547Z,8.00
2019-01-13T20:48:13.245Z,3.37
2019-01-13T20:49:21.569Z,5.90
2019-01-13T20:50:29.218Z,6.80
2019-01-13T20:51:37.030Z,4.33
2019-01-13T20:52:45.315Z,3.93
2019-01-13T20:53:53.409Z,6.27
2019-01-13T20:55:01.257Z,4.90
2019-01-13T20:56:09.561Z,4.30
2019-01-13T20:57:17.822Z,4.27
2019-01-13T20:58:25.431Z,5.80
2019-01-13T20:59:32.834Z,4.80
2019-01-13T21:00:40.932Z,5.40
2019-01-13T21:01:48.518Z,5.97
2019-01-13T21:02:56.294Z,3.33
2019-01-13T21:04:04.009Z,5.10
2019-01-13T21:05:11.568Z,5.47
2019-01-13T21:06:19.292Z,5.03
2019-01-13T21:07:26.938Z,3.83
2019-01-13T21:08:35.190Z,5.90
2019-01-13T21:09:43.279Z,5.87
2019-01-13T21:10:50.921Z,3.90
2019-01-13T21:11:58.451Z,4.97
2019-01-13T21:13:06.216Z,4.57
2019-01-13T21:14:13.904Z,5.60
2019-01-13T21:15:26.391Z,4.53
2019-01-13T21:16:33.996Z,4.20
2019-01-13T21:17:41.606Z,5.80
2019-01-13T21:18:49.199Z,6.33
2019-01-13T21:19:56.755Z,4.90
2019-01-13T21:21:04.300Z,5.17
2019-01-13T21:22:11.714Z,5.60
2019-01-13T21:23:21.784Z,6.13
2019-01-13T21:24:29.550Z,3.13
2019-01-13T21:25:37.312Z,4.53
2019-01-13T21:26:45.824Z,6.80
2019-01-13T21:27:55.016Z,7.20
2019-01-13T21:29:02.807Z,7.13
2019-01-13T21:30:18.434Z,6.20
2019-01-13T21:31:26.896Z,6.17
2019-01-13T21:32:34.735Z,6.93
2019-01-13T21:33:42.469Z,7.77
2019-01-13T21:34:50.451Z,6.90
2019-01-13T21:35:58.366Z,5.27
2019-01-13T21:37:05.909Z,4.47
2019-01-13T21:38:13.364Z,8.07
2019-01-13T21:39:21.084Z,8.20
2019-01-13T21:40:28.623Z,5.53
2019-01-13T21:41:36.212Z,7.17
2019-01-13T21:42:44.021Z,4.63
2019-01-13T21:43:52.069Z,5.37
2019-01-13T21:44:59.628Z,4.37
2019-01-13T21:46:07.360Z,5.03
2019-01-13T21:47:14.891Z,4.90
2019-01-13T21:48:22.521Z,6.30
2019-01-13T21:49:30.470Z,6.23
2019-01-13T21:50:38.294Z,6.70
2019-01-13T21:51:46.047Z,7.07
2019-01-13T21:52:54.296Z,10.87
2019-01-13T21:54:02.240Z,6.03
2019-01-13T21:55:12.997Z,10.23
2019-01-13T21:56:20.742Z,8.03
2019-01-13T21:57:29.235Z,9.53
2019-01-13T21:58:36.919Z,5.50
2019-01-13T21:59:44.519Z,8.00
2019-01-13T22:00:52.287Z,5.77
2019-01-13T22:02:00.115Z,7.37
2019-01-13T22:03:07.669Z,8.57
2019-01-13T22:04:15.360Z,9.30
2019-01-13T22:05:23.680Z,9.17
2019-01-13T22:06:31.787Z,5.67
2019-01-13T22:07:39.436Z,9.60
2019-01-13T22:08:47.027Z,8.27
2019-01-13T22:09:54.709Z,8.27
2019-01-13T22:11:02.560Z,5.80
2019-01-13T22:12:10.286Z,3.93
2019-01-13T22:13:17.875Z,6.80
2019-01-13T22:14:25.401Z,4.80
2019-01-13T22:15:32.960Z,3.40
2019-01-13T22:16:40.676Z,7.43
2019-01-13T22:17:48.238Z,4.40
2019-01-13T22:18:55.893Z,5.13
2019-01-13T22:20:04.585Z,7.53
2019-01-13T22:21:12.508Z,6.90
2019-01-13T22:22:20.194Z,3.90
2019-01-13T22:23:27.973Z,7.07
2019-01-13T22:24:35.684Z,4.93
2019-01-13T22:25:43.264Z,4.33
2019-01-13T22:26:50.639Z,3.77
2019-01-13T22:27:58.309Z,4.30
2019-01-13T22:29:06.249Z,6.53
2019-01-13T22:30:17.193Z,5.60
2019-01-13T22:31:25.040Z,5.30
2019-01-13T22:32:32.766Z,5.80
2019-01-13T22:33:40.458Z,7.93
2019-01-13T22:34:48.036Z,4.83
2019-01-13T22:35:55.802Z,4.97
2019-01-13T22:37:03.335Z,6.27
2019-01-13T22:38:10.990Z,6.40
2019-01-13T22:39:18.680Z,6.50
2019-01-13T22:40:26.397Z,4.90
2019-01-13T22:41:34.051Z,6.97
2019-01-13T22:42:41.736Z,7.80
2019-01-13T22:43:49.250Z,6.80
2019-01-13T22:44:56.958Z,8.27
2019-01-13T22:46:04.606Z,7.93
2019-01-13T22:47:12.268Z,9.20
2019-01-13T22:48:20.067Z,8.63
2019-01-13T22:49:27.811Z,5.80
2019-01-13T22:50:35.651Z,9.30
2019-01-13T22:51:43.322Z,7.07
2019-01-13T22:52:51.026Z,4.83
2019-01-13T22:53:58.682Z,4.90
2019-01-13T22:55:08.931Z,7.03
2019-01-13T22:56:16.498Z,3.50
2019-01-13T22:57:24.141Z,5.20
2019-01-13T22:58:31.767Z,6.37
2019-01-13T22:59:39.301Z,7.30
2019-01-13T23:01:07.085Z,6.57
2019-01-13T23:02:14.391Z,5.50
2019-01-13T23:03:22.198Z,4.37
2019-01-13T23:04:30.117Z,4.43
2019-01-13T23:05:37.510Z,4.73
2019-01-13T23:06:45.127Z,5.67
2019-01-13T23:07:52.769Z,6.67
2019-01-13T23:09:00.414Z,5.67
2019-01-13T23:10:09.273Z,8.73
2019-01-13T23:11:16.851Z,5.40
2019-01-13T23:12:24.417Z,6.60
2019-01-13T23:13:32.078Z,4.33
2019-01-13T23:14:39.752Z,2.93
2019-01-13T23:15:47.351Z,5.73
2019-01-13T23:16:54.677Z,4.93
2019-01-13T23:18:02.411Z,5.93
2019-01-13T23:19:10.207Z,6.30
2019-01-13T23:20:18.045Z,5.53
2019-01-13T23:21:25.471Z,4.57
2019-01-13T23:22:33.159Z,3.93
2019-01-13T23:23:43.539Z,5.20
2019-01-13T23:24:51.328Z,3.97
2019-01-13T23:25:59.574Z,3.50
2019-01-13T23:27:07.048Z,2.93
2019-01-13T23:28:14.652Z,4.53
2019-01-13T23:29:22.660Z,5.27
2019-01-13T23:30:30.316Z,3.37
2019-01-13T23:31:38.003Z,3.67
2019-01-13T23:32:45.380Z,4.07
2019-01-13T23:33:53.265Z,5.47
2019-01-13T23:35:01.029Z,9.67
2019-01-13T23:36:08.608Z,6.53
2019-01-13T23:37:16.128Z,3.80
2019-01-13T23:38:23.563Z,3.83
2019-01-13T23:39:31.450Z,3.93
2019-01-13T23:40:40.776Z,7.17
2019-01-13T23:41:48.378Z,2.90
2019-01-13T23:42:55.939Z,2.53
2019-01-13T23:44:03.892Z,2.63
2019-01-13T23:45:11.798Z,4.67
2019-01-13T23:46:19.316Z,2.23
2019-01-13T23:47:26.936Z,2.77
2019-01-13T23:48:34.947Z,3.07
2019-01-13T23:49:42.955Z,2.97
2019-01-13T23:50:51.795Z,3.70
2019-01-13T23:51:59.577Z,5.90
2019-01-13T23:53:07.250Z,3.27
2019-01-13T23:54:15.193Z,2.87
2019-01-13T23:55:22.855Z,3.10
2019-01-13T23:56:30.687Z,3.93
2019-01-13T23:57:38.084Z,4.60
2019-01-13T23:58:46.078Z,3.93
2019-01-13T23:59:53.518Z,3.57
